sensor_id;sensor_type;location;lat;lon;timestamp;temperature;humidity
108;DHT22;49;48.530;9.200;2023-12-04T00:00:59;5.80;1.00
108;DHT22;49;48.530;9.200;2023-12-04T00:03:26;5.30;1.00
108;DHT22;49;48.530;9.200;2023-12-04T00:05:53;5.00;1.00
108;DHT22;49;48.530;9.200;2023-12-04T00:08:19;5.40;1.00
108;DHT22;49;48.530;9.200;2023-12-04T00:10:46;6.10;1.00
108;DHT22;49;48.530;9.200;2023-12-04T00:13:14;6.10;1.00
108;DHT22;49;48.530;9.200;2023-12-04T00:15:41;6.20;1.00
108;DHT22;49;48.530;9.200;2023-12-04T00:18:08;6.00;1.00
108;DHT22;49;48.530;9.200;2023-12-04T00:20:35;6.20;1.00
108;DHT22;49;48.530;9.200;2023-12-04T00:23:03;5.90;1.00
108;DHT22;49;48.530;9.200;2023-12-04T00:25:30;5.90;1.00
108;DHT22;49;48.530;9.200;2023-12-04T00:27:57;5.90;1.00
108;DHT22;49;48.530;9.200;2023-12-04T00:30:25;6.20;1.00
108;DHT22;49;48.530;9.200;2023-12-04T00:32:52;6.20;1.00
108;DHT22;49;48.530;9.200;2023-12-04T00:35:19;5.80;1.00
108;DHT22;49;48.530;9.200;2023-12-04T00:37:46;5.50;1.00
108;DHT22;49;48.530;9.200;2023-12-04T00:40:12;4.90;1.00
108;DHT22;49;48.530;9.200;2023-12-04T00:42:39;5.10;1.00
108;DHT22;49;48.530;9.200;2023-12-04T00:45:07;4.80;1.00
108;DHT22;49;48.530;9.200;2023-12-04T00:47:36;4.70;1.00
108;DHT22;49;48.530;9.200;2023-12-04T00:50:03;4.90;1.00
108;DHT22;49;48.530;9.200;2023-12-04T00:52:30;4.20;1.00
108;DHT22;49;48.530;9.200;2023-12-04T00:54:57;3.40;1.00
108;DHT22;49;48.530;9.200;2023-12-04T00:57:23;2.30;1.00
108;DHT22;49;48.530;9.200;2023-12-04T00:59:50;1.60;1.00
108;DHT22;49;48.530;9.200;2023-12-04T01:02:17;2.20;1.00
108;DHT22;49;48.530;9.200;2023-12-04T01:04:45;2.40;1.00
108;DHT22;49;48.530;9.200;2023-12-04T01:07:12;2.80;1.00
108;DHT22;49;48.530;9.200;2023-12-04T01:09:39;3.50;1.00
108;DHT22;49;48.530;9.200;2023-12-04T01:12:06;3.70;1.00
108;DHT22;49;48.530;9.200;2023-12-04T01:14:33;4.00;1.00
108;DHT22;49;48.530;9.200;2023-12-04T01:17:00;4.10;1.00
108;DHT22;49;48.530;9.200;2023-12-04T01:19:26;4.20;1.00
108;DHT22;49;48.530;9.200;2023-12-04T01:21:55;4.20;1.00
108;DHT22;49;48.530;9.200;2023-12-04T01:24:21;3.40;1.00
108;DHT22;49;48.530;9.200;2023-12-04T01:26:48;2.10;1.00
108;DHT22;49;48.530;9.200;2023-12-04T01:29:15;0.80;1.00
108;DHT22;49;48.530;9.200;2023-12-04T01:31:42;-0.10;1.00
108;DHT22;49;48.530;9.200;2023-12-04T01:34:09;-0.30;1.00
108;DHT22;49;48.530;9.200;2023-12-04T01:36:39;-0.90;1.00
108;DHT22;49;48.530;9.200;2023-12-04T01:39:07;-0.80;1.00
108;DHT22;49;48.530;9.200;2023-12-04T01:41:34;-1.00;1.00
108;DHT22;49;48.530;9.200;2023-12-04T01:44:01;-0.90;1.00
108;DHT22;49;48.530;9.200;2023-12-04T01:46:29;-1.20;1.00
108;DHT22;49;48.530;9.200;2023-12-04T01:48:56;-1.00;1.00
108;DHT22;49;48.530;9.200;2023-12-04T01:51:23;-0.40;1.00
108;DHT22;49;48.530;9.200;2023-12-04T01:53:51;-0.10;1.00
108;DHT22;49;48.530;9.200;2023-12-04T01:56:21;-0.70;1.00
108;DHT22;49;48.530;9.200;2023-12-04T01:58:47;-1.30;1.00
108;DHT22;49;48.530;9.200;2023-12-04T02:01:14;-1.40;1.00
108;DHT22;49;48.530;9.200;2023-12-04T02:03:42;-1.50;1.00
108;DHT22;49;48.530;9.200;2023-12-04T02:06:09;-1.40;1.00
108;DHT22;49;48.530;9.200;2023-12-04T02:08:40;-1.40;1.00
108;DHT22;49;48.530;9.200;2023-12-04T02:11:07;-1.30;1.00
108;DHT22;49;48.530;9.200;2023-12-04T02:13:36;-1.60;1.00
108;DHT22;49;48.530;9.200;2023-12-04T02:16:05;-1.30;1.00
108;DHT22;49;48.530;9.200;2023-12-04T02:18:35;-0.80;1.00
108;DHT22;49;48.530;9.200;2023-12-04T02:21:03;-0.60;1.00
108;DHT22;49;48.530;9.200;2023-12-04T02:23:30;-0.60;1.00
108;DHT22;49;48.530;9.200;2023-12-04T02:26:01;-1.00;1.00
108;DHT22;49;48.530;9.200;2023-12-04T02:28:33;-0.90;1.00
108;DHT22;49;48.530;9.200;2023-12-04T02:31:01;-1.00;1.00
108;DHT22;49;48.530;9.200;2023-12-04T02:33:32;-0.60;1.00
108;DHT22;49;48.530;9.200;2023-12-04T02:36:01;-0.70;1.00
108;DHT22;49;48.530;9.200;2023-12-04T02:38:29;-1.40;1.00
108;DHT22;49;48.530;9.200;2023-12-04T02:40:56;-1.30;1.00
108;DHT22;49;48.530;9.200;2023-12-04T02:43:24;-1.50;1.00
108;DHT22;49;48.530;9.200;2023-12-04T02:45:51;-1.40;1.00
108;DHT22;49;48.530;9.200;2023-12-04T02:48:18;-1.20;1.00
108;DHT22;49;48.530;9.200;2023-12-04T02:50:45;-1.10;1.00
108;DHT22;49;48.530;9.200;2023-12-04T02:53:11;-1.00;1.00
108;DHT22;49;48.530;9.200;2023-12-04T02:55:38;-1.10;1.00
108;DHT22;49;48.530;9.200;2023-12-04T02:58:05;-1.30;1.00
108;DHT22;49;48.530;9.200;2023-12-04T03:00:33;-1.40;1.00
108;DHT22;49;48.530;9.200;2023-12-04T03:03:00;-1.70;1.00
108;DHT22;49;48.530;9.200;2023-12-04T03:05:27;-1.90;1.00
108;DHT22;49;48.530;9.200;2023-12-04T03:07:54;-1.90;1.00
108;DHT22;49;48.530;9.200;2023-12-04T03:10:21;-2.30;1.00
108;DHT22;49;48.530;9.200;2023-12-04T03:12:47;-2.10;1.00
108;DHT22;49;48.530;9.200;2023-12-04T03:15:14;-2.00;1.00
108;DHT22;49;48.530;9.200;2023-12-04T03:17:42;-1.90;1.00
108;DHT22;49;48.530;9.200;2023-12-04T03:20:10;-1.90;1.00
108;DHT22;49;48.530;9.200;2023-12-04T03:22:37;-1.80;1.00
108;DHT22;49;48.530;9.200;2023-12-04T03:25:05;-1.70;1.00
108;DHT22;49;48.530;9.200;2023-12-04T03:27:32;-1.90;1.00
108;DHT22;49;48.530;9.200;2023-12-04T03:29:59;-1.90;1.00
108;DHT22;49;48.530;9.200;2023-12-04T03:32:26;-1.50;1.00
108;DHT22;49;48.530;9.200;2023-12-04T03:34:54;-1.60;1.00
108;DHT22;49;48.530;9.200;2023-12-04T03:37:21;-1.40;1.00
108;DHT22;49;48.530;9.200;2023-12-04T03:39:48;-1.30;1.00
108;DHT22;49;48.530;9.200;2023-12-04T03:42:15;-1.50;1.00
108;DHT22;49;48.530;9.200;2023-12-04T03:44:41;-1.60;1.00
108;DHT22;49;48.530;9.200;2023-12-04T03:47:08;-1.40;1.00
108;DHT22;49;48.530;9.200;2023-12-04T03:49:35;-1.20;1.00
108;DHT22;49;48.530;9.200;2023-12-04T03:52:04;-1.50;1.00
108;DHT22;49;48.530;9.200;2023-12-04T03:54:30;-1.70;1.00
108;DHT22;49;48.530;9.200;2023-12-04T03:56:57;-1.50;1.00
108;DHT22;49;48.530;9.200;2023-12-04T03:59:24;-1.50;1.00
108;DHT22;49;48.530;9.200;2023-12-04T04:01:51;-1.50;1.00
108;DHT22;49;48.530;9.200;2023-12-04T04:04:18;-1.60;1.00
108;DHT22;49;48.530;9.200;2023-12-04T04:06:45;-1.30;1.00
108;DHT22;49;48.530;9.200;2023-12-04T04:09:13;-1.70;1.00
108;DHT22;49;48.530;9.200;2023-12-04T04:11:40;-1.70;1.00
108;DHT22;49;48.530;9.200;2023-12-04T04:14:07;-1.70;1.00
108;DHT22;49;48.530;9.200;2023-12-04T04:16:34;-1.20;1.00
108;DHT22;49;48.530;9.200;2023-12-04T04:19:00;-1.40;1.00
108;DHT22;49;48.530;9.200;2023-12-04T04:21:27;-1.30;1.00
108;DHT22;49;48.530;9.200;2023-12-04T04:23:53;-1.40;1.00
108;DHT22;49;48.530;9.200;2023-12-04T04:26:21;-1.60;1.00
108;DHT22;49;48.530;9.200;2023-12-04T04:28:48;-1.30;1.00
108;DHT22;49;48.530;9.200;2023-12-04T04:31:15;-1.40;1.00
108;DHT22;49;48.530;9.200;2023-12-04T04:33:44;-1.50;1.00
108;DHT22;49;48.530;9.200;2023-12-04T04:36:11;-1.80;1.00
108;DHT22;49;48.530;9.200;2023-12-04T04:38:39;-1.70;1.00
108;DHT22;49;48.530;9.200;2023-12-04T04:41:06;-1.70;1.00
108;DHT22;49;48.530;9.200;2023-12-04T04:43:34;-1.60;1.00
108;DHT22;49;48.530;9.200;2023-12-04T04:46:01;-1.30;1.00
108;DHT22;49;48.530;9.200;2023-12-04T04:48:28;-0.80;1.00
108;DHT22;49;48.530;9.200;2023-12-04T04:50:55;-0.90;1.00
108;DHT22;49;48.530;9.200;2023-12-04T04:53:22;-1.10;1.00
108;DHT22;49;48.530;9.200;2023-12-04T04:55:49;-1.30;1.00
108;DHT22;49;48.530;9.200;2023-12-04T04:58:16;-1.70;1.00
108;DHT22;49;48.530;9.200;2023-12-04T05:00:45;-1.90;1.00
108;DHT22;49;48.530;9.200;2023-12-04T05:03:12;-1.80;1.00
108;DHT22;49;48.530;9.200;2023-12-04T05:05:39;-1.00;1.00
108;DHT22;49;48.530;9.200;2023-12-04T05:08:06;-0.90;1.00
108;DHT22;49;48.530;9.200;2023-12-04T05:10:33;-1.30;1.00
108;DHT22;49;48.530;9.200;2023-12-04T05:13:00;-1.50;1.00
108;DHT22;49;48.530;9.200;2023-12-04T05:15:26;-1.50;1.00
108;DHT22;49;48.530;9.200;2023-12-04T05:17:55;-1.50;1.00
108;DHT22;49;48.530;9.200;2023-12-04T05:20:22;-1.20;1.00
108;DHT22;49;48.530;9.200;2023-12-04T05:22:49;-1.30;1.00
108;DHT22;49;48.530;9.200;2023-12-04T05:25:17;-1.30;1.00
108;DHT22;49;48.530;9.200;2023-12-04T05:27:44;-1.20;1.00
108;DHT22;49;48.530;9.200;2023-12-04T05:30:12;-1.30;1.00
108;DHT22;49;48.530;9.200;2023-12-04T05:32:39;-1.20;1.00
108;DHT22;49;48.530;9.200;2023-12-04T05:35:08;-1.00;1.00
108;DHT22;49;48.530;9.200;2023-12-04T05:37:35;-0.90;1.00
108;DHT22;49;48.530;9.200;2023-12-04T05:40:02;-1.40;1.00
108;DHT22;49;48.530;9.200;2023-12-04T05:42:29;-1.20;1.00
108;DHT22;49;48.530;9.200;2023-12-04T05:44:56;-1.00;1.00
108;DHT22;49;48.530;9.200;2023-12-04T05:47:23;-0.90;1.00
108;DHT22;49;48.530;9.200;2023-12-04T05:49:50;-1.00;1.00
108;DHT22;49;48.530;9.200;2023-12-04T05:52:18;-1.00;1.00
108;DHT22;49;48.530;9.200;2023-12-04T05:54:45;-1.00;1.00
108;DHT22;49;48.530;9.200;2023-12-04T05:57:13;-0.80;1.00
108;DHT22;49;48.530;9.200;2023-12-04T06:02:15;-0.70;1.00
108;DHT22;49;48.530;9.200;2023-12-04T06:04:42;-0.40;1.00
108;DHT22;49;48.530;9.200;2023-12-04T06:07:09;-0.30;1.00
108;DHT22;49;48.530;9.200;2023-12-04T06:09:37;-0.10;1.00
108;DHT22;49;48.530;9.200;2023-12-04T06:12:05;-0.20;1.00
108;DHT22;49;48.530;9.200;2023-12-04T06:14:33;-0.40;1.00
108;DHT22;49;48.530;9.200;2023-12-04T06:19:33;-0.20;1.00
108;DHT22;49;48.530;9.200;2023-12-04T06:22:00;-0.20;1.00
108;DHT22;49;48.530;9.200;2023-12-04T06:24:31;0.10;1.00
108;DHT22;49;48.530;9.200;2023-12-04T06:27:00;0.60;1.00
108;DHT22;49;48.530;9.200;2023-12-04T06:29:27;0.40;1.00
108;DHT22;49;48.530;9.200;2023-12-04T06:31:55;0.30;1.00
108;DHT22;49;48.530;9.200;2023-12-04T06:34:23;0.80;1.00
108;DHT22;49;48.530;9.200;2023-12-04T06:36:50;0.40;1.00
108;DHT22;49;48.530;9.200;2023-12-04T06:39:17;0.90;1.00
108;DHT22;49;48.530;9.200;2023-12-04T06:41:45;0.80;1.00
108;DHT22;49;48.530;9.200;2023-12-04T06:44:15;0.70;1.00
108;DHT22;49;48.530;9.200;2023-12-04T06:46:46;1.30;1.00
108;DHT22;49;48.530;9.200;2023-12-04T06:49:17;1.50;1.00
108;DHT22;49;48.530;9.200;2023-12-04T06:51:44;1.20;1.00
108;DHT22;49;48.530;9.200;2023-12-04T06:54:11;1.10;1.00
108;DHT22;49;48.530;9.200;2023-12-04T06:56:39;1.10;1.00
108;DHT22;49;48.530;9.200;2023-12-04T06:59:05;0.80;1.00
108;DHT22;49;48.530;9.200;2023-12-04T07:01:34;1.00;1.00
108;DHT22;49;48.530;9.200;2023-12-04T07:04:00;1.40;1.00
108;DHT22;49;48.530;9.200;2023-12-04T07:06:35;2.20;1.00
108;DHT22;49;48.530;9.200;2023-12-04T07:09:02;2.00;1.00
108;DHT22;49;48.530;9.200;2023-12-04T07:11:29;1.60;1.00
108;DHT22;49;48.530;9.200;2023-12-04T07:13:55;1.10;1.00
108;DHT22;49;48.530;9.200;2023-12-04T07:16:22;1.20;1.00
108;DHT22;49;48.530;9.200;2023-12-04T07:18:50;1.10;1.00
108;DHT22;49;48.530;9.200;2023-12-04T07:21:17;1.50;1.00
108;DHT22;49;48.530;9.200;2023-12-04T07:23:44;1.50;1.00
108;DHT22;49;48.530;9.200;2023-12-04T07:26:11;1.50;1.00
108;DHT22;49;48.530;9.200;2023-12-04T07:28:38;1.60;1.00
108;DHT22;49;48.530;9.200;2023-12-04T07:31:05;1.60;1.00
108;DHT22;49;48.530;9.200;2023-12-04T07:33:32;2.20;1.00
108;DHT22;49;48.530;9.200;2023-12-04T07:36:01;2.50;1.00
108;DHT22;49;48.530;9.200;2023-12-04T07:38:28;2.80;1.00
108;DHT22;49;48.530;9.200;2023-12-04T07:40:54;2.10;1.00
108;DHT22;49;48.530;9.200;2023-12-04T07:43:21;2.10;1.00
108;DHT22;49;48.530;9.200;2023-12-04T07:45:48;1.70;1.00
108;DHT22;49;48.530;9.200;2023-12-04T07:50:46;1.30;1.00
108;DHT22;49;48.530;9.200;2023-12-04T07:53:14;1.20;1.00
108;DHT22;49;48.530;9.200;2023-12-04T07:55:41;0.90;1.00
108;DHT22;49;48.530;9.200;2023-12-04T07:58:09;1.70;1.00
108;DHT22;49;48.530;9.200;2023-12-04T08:00:36;2.60;1.00
108;DHT22;49;48.530;9.200;2023-12-04T08:03:03;2.70;1.00
108;DHT22;49;48.530;9.200;2023-12-04T08:05:30;2.90;1.00
108;DHT22;49;48.530;9.200;2023-12-04T08:07:57;2.40;1.00
108;DHT22;49;48.530;9.200;2023-12-04T08:10:26;2.10;1.00
108;DHT22;49;48.530;9.200;2023-12-04T08:12:52;2.60;1.00
108;DHT22;49;48.530;9.200;2023-12-04T08:15:19;2.90;1.00
108;DHT22;49;48.530;9.200;2023-12-04T08:17:46;2.50;1.00
108;DHT22;49;48.530;9.200;2023-12-04T08:20:13;2.10;1.00
108;DHT22;49;48.530;9.200;2023-12-04T08:22:40;1.60;1.00
108;DHT22;49;48.530;9.200;2023-12-04T08:25:07;1.80;1.00
108;DHT22;49;48.530;9.200;2023-12-04T08:27:36;1.60;1.00
108;DHT22;49;48.530;9.200;2023-12-04T08:30:04;2.30;1.00
108;DHT22;49;48.530;9.200;2023-12-04T08:32:31;2.70;1.00
108;DHT22;49;48.530;9.200;2023-12-04T08:34:58;2.50;1.00
108;DHT22;49;48.530;9.200;2023-12-04T08:37:25;3.00;1.00
108;DHT22;49;48.530;9.200;2023-12-04T08:39:55;2.60;1.00
108;DHT22;49;48.530;9.200;2023-12-04T08:42:22;2.80;1.00
108;DHT22;49;48.530;9.200;2023-12-04T08:44:50;3.10;1.00
108;DHT22;49;48.530;9.200;2023-12-04T08:47:17;3.30;1.00
108;DHT22;49;48.530;9.200;2023-12-04T08:49:44;3.50;1.00
108;DHT22;49;48.530;9.200;2023-12-04T08:52:12;4.30;1.00
108;DHT22;49;48.530;9.200;2023-12-04T08:54:39;4.60;1.00
108;DHT22;49;48.530;9.200;2023-12-04T08:57:07;4.70;1.00
108;DHT22;49;48.530;9.200;2023-12-04T08:59:35;4.60;1.00
108;DHT22;49;48.530;9.200;2023-12-04T09:02:03;5.10;1.00
108;DHT22;49;48.530;9.200;2023-12-04T09:04:30;5.50;1.00
108;DHT22;49;48.530;9.200;2023-12-04T09:06:58;5.70;1.00
108;DHT22;49;48.530;9.200;2023-12-04T09:09:25;5.90;1.00
108;DHT22;49;48.530;9.200;2023-12-04T09:11:51;6.10;1.00
108;DHT22;49;48.530;9.200;2023-12-04T09:14:18;6.30;1.00
108;DHT22;49;48.530;9.200;2023-12-04T09:16:45;6.20;1.00
108;DHT22;49;48.530;9.200;2023-12-04T09:19:13;5.00;1.00
108;DHT22;49;48.530;9.200;2023-12-04T09:21:40;5.10;1.00
108;DHT22;49;48.530;9.200;2023-12-04T09:24:08;5.10;1.00
108;DHT22;49;48.530;9.200;2023-12-04T09:26:35;5.30;1.00
108;DHT22;49;48.530;9.200;2023-12-04T09:29:01;5.40;1.00
108;DHT22;49;48.530;9.200;2023-12-04T09:31:28;5.70;1.00
108;DHT22;49;48.530;9.200;2023-12-04T09:33:55;5.60;1.00
108;DHT22;49;48.530;9.200;2023-12-04T09:36:24;5.20;1.00
108;DHT22;49;48.530;9.200;2023-12-04T09:38:50;4.80;1.00
108;DHT22;49;48.530;9.200;2023-12-04T09:41:18;4.60;1.00
108;DHT22;49;48.530;9.200;2023-12-04T09:43:47;5.40;1.00
108;DHT22;49;48.530;9.200;2023-12-04T09:46:15;4.90;1.00
108;DHT22;49;48.530;9.200;2023-12-04T09:48:43;4.90;1.00
108;DHT22;49;48.530;9.200;2023-12-04T09:53:47;5.20;1.00
108;DHT22;49;48.530;9.200;2023-12-04T09:56:15;5.50;1.00
108;DHT22;49;48.530;9.200;2023-12-04T09:58:45;5.60;1.00
108;DHT22;49;48.530;9.200;2023-12-04T10:01:12;5.00;1.00
108;DHT22;49;48.530;9.200;2023-12-04T10:03:40;5.60;1.00
108;DHT22;49;48.530;9.200;2023-12-04T10:06:08;5.50;1.00
108;DHT22;49;48.530;9.200;2023-12-04T10:08:36;5.30;1.00
108;DHT22;49;48.530;9.200;2023-12-04T10:11:04;5.80;1.00
108;DHT22;49;48.530;9.200;2023-12-04T10:13:32;5.40;1.00
108;DHT22;49;48.530;9.200;2023-12-04T10:15:59;5.10;1.00
108;DHT22;49;48.530;9.200;2023-12-04T10:18:27;5.10;1.00
108;DHT22;49;48.530;9.200;2023-12-04T10:20:56;4.70;1.00
108;DHT22;49;48.530;9.200;2023-12-04T10:23:37;5.20;1.00
108;DHT22;49;48.530;9.200;2023-12-04T10:26:08;5.30;1.00
108;DHT22;49;48.530;9.200;2023-12-04T10:28:35;5.90;1.00
108;DHT22;49;48.530;9.200;2023-12-04T10:31:03;6.10;1.00
108;DHT22;49;48.530;9.200;2023-12-04T10:33:32;6.10;1.00
108;DHT22;49;48.530;9.200;2023-12-04T10:35:59;6.00;1.00
108;DHT22;49;48.530;9.200;2023-12-04T10:38:28;5.60;1.00
108;DHT22;49;48.530;9.200;2023-12-04T10:40:55;5.30;1.00
108;DHT22;49;48.530;9.200;2023-12-04T10:43:23;6.00;1.00
108;DHT22;49;48.530;9.200;2023-12-04T10:45:50;5.80;1.00
108;DHT22;49;48.530;9.200;2023-12-04T10:48:19;6.00;1.00
108;DHT22;49;48.530;9.200;2023-12-04T10:50:49;5.40;1.00
108;DHT22;49;48.530;9.200;2023-12-04T10:53:17;5.50;1.00
108;DHT22;49;48.530;9.200;2023-12-04T10:55:45;6.30;1.00
108;DHT22;49;48.530;9.200;2023-12-04T10:58:13;6.40;1.00
108;DHT22;49;48.530;9.200;2023-12-04T11:00:44;6.80;1.00
108;DHT22;49;48.530;9.200;2023-12-04T11:03:15;6.60;1.00
108;DHT22;49;48.530;9.200;2023-12-04T11:05:45;6.60;1.00
108;DHT22;49;48.530;9.200;2023-12-04T11:08:16;6.50;1.00
108;DHT22;49;48.530;9.200;2023-12-04T11:10:48;6.70;1.00
108;DHT22;49;48.530;9.200;2023-12-04T11:13:21;6.40;1.00
108;DHT22;49;48.530;9.200;2023-12-04T11:15:52;6.00;1.00
108;DHT22;49;48.530;9.200;2023-12-04T11:18:23;5.60;1.00
108;DHT22;49;48.530;9.200;2023-12-04T11:20:59;5.90;1.00
108;DHT22;49;48.530;9.200;2023-12-04T11:23:31;6.20;1.00
108;DHT22;49;48.530;9.200;2023-12-04T11:26:01;6.80;1.00
108;DHT22;49;48.530;9.200;2023-12-04T11:28:30;7.00;1.00
108;DHT22;49;48.530;9.200;2023-12-04T11:31:00;6.60;1.00
108;DHT22;49;48.530;9.200;2023-12-04T11:33:28;6.90;1.00
108;DHT22;49;48.530;9.200;2023-12-04T11:36:06;6.70;1.00
108;DHT22;49;48.530;9.200;2023-12-04T11:38:34;6.80;1.00
108;DHT22;49;48.530;9.200;2023-12-04T11:41:14;7.10;1.00
108;DHT22;49;48.530;9.200;2023-12-04T11:43:42;6.50;1.00
108;DHT22;49;48.530;9.200;2023-12-04T11:46:11;6.60;1.00
108;DHT22;49;48.530;9.200;2023-12-04T11:48:38;6.40;1.00
108;DHT22;49;48.530;9.200;2023-12-04T11:51:06;6.80;1.00
108;DHT22;49;48.530;9.200;2023-12-04T11:53:37;7.30;1.00
108;DHT22;49;48.530;9.200;2023-12-04T11:56:09;6.90;1.00
108;DHT22;49;48.530;9.200;2023-12-04T11:58:44;6.90;1.00
108;DHT22;49;48.530;9.200;2023-12-04T12:01:17;6.80;1.00
108;DHT22;49;48.530;9.200;2023-12-04T12:06:17;6.90;1.00
108;DHT22;49;48.530;9.200;2023-12-04T12:08:47;6.90;1.00
108;DHT22;49;48.530;9.200;2023-12-04T12:11:15;7.00;1.00
108;DHT22;49;48.530;9.200;2023-12-04T12:13:42;7.00;1.00
108;DHT22;49;48.530;9.200;2023-12-04T12:16:12;6.90;1.00
108;DHT22;49;48.530;9.200;2023-12-04T12:18:40;7.10;1.00
108;DHT22;49;48.530;9.200;2023-12-04T12:21:08;7.10;1.00
108;DHT22;49;48.530;9.200;2023-12-04T12:23:35;7.50;1.00
108;DHT22;49;48.530;9.200;2023-12-04T12:26:05;7.40;1.00
108;DHT22;49;48.530;9.200;2023-12-04T12:28:35;7.50;1.00
108;DHT22;49;48.530;9.200;2023-12-04T12:31:04;7.40;1.00
108;DHT22;49;48.530;9.200;2023-12-04T12:33:33;7.70;1.00
108;DHT22;49;48.530;9.200;2023-12-04T12:36:01;7.80;1.00
108;DHT22;49;48.530;9.200;2023-12-04T12:38:36;8.10;1.00
108;DHT22;49;48.530;9.200;2023-12-04T12:41:06;8.10;1.00
108;DHT22;49;48.530;9.200;2023-12-04T12:43:37;8.10;1.00
108;DHT22;49;48.530;9.200;2023-12-04T12:46:05;8.10;1.00
108;DHT22;49;48.530;9.200;2023-12-04T12:48:33;8.50;1.00
108;DHT22;49;48.530;9.200;2023-12-04T12:51:03;8.80;1.00
108;DHT22;49;48.530;9.200;2023-12-04T12:53:32;8.70;1.00
108;DHT22;49;48.530;9.200;2023-12-04T12:55:59;8.60;1.00
108;DHT22;49;48.530;9.200;2023-12-04T12:58:27;8.00;1.00
108;DHT22;49;48.530;9.200;2023-12-04T13:00:55;8.40;1.00
108;DHT22;49;48.530;9.200;2023-12-04T13:03:22;8.50;1.00
108;DHT22;49;48.530;9.200;2023-12-04T13:05:51;8.20;1.00
108;DHT22;49;48.530;9.200;2023-12-04T13:08:18;8.40;1.00
108;DHT22;49;48.530;9.200;2023-12-04T13:10:45;8.40;1.00
108;DHT22;49;48.530;9.200;2023-12-04T13:13:12;8.40;1.00
108;DHT22;49;48.530;9.200;2023-12-04T13:15:40;8.50;1.00
108;DHT22;49;48.530;9.200;2023-12-04T13:18:09;8.50;1.00
108;DHT22;49;48.530;9.200;2023-12-04T13:20:36;7.90;1.00
108;DHT22;49;48.530;9.200;2023-12-04T13:23:04;8.20;1.00
108;DHT22;49;48.530;9.200;2023-12-04T13:25:32;8.50;1.00
108;DHT22;49;48.530;9.200;2023-12-04T13:27:59;7.90;1.00
108;DHT22;49;48.530;9.200;2023-12-04T13:30:26;8.20;1.00
108;DHT22;49;48.530;9.200;2023-12-04T13:32:52;8.10;1.00
108;DHT22;49;48.530;9.200;2023-12-04T13:35:19;8.20;1.00
108;DHT22;49;48.530;9.200;2023-12-04T13:37:46;8.00;1.00
108;DHT22;49;48.530;9.200;2023-12-04T13:40:21;8.40;1.00
108;DHT22;49;48.530;9.200;2023-12-04T13:42:52;8.10;1.00
108;DHT22;49;48.530;9.200;2023-12-04T13:45:36;7.90;1.00
108;DHT22;49;48.530;9.200;2023-12-04T13:48:03;7.80;1.00
108;DHT22;49;48.530;9.200;2023-12-04T13:50:30;7.40;1.00
108;DHT22;49;48.530;9.200;2023-12-04T13:52:57;7.70;1.00
108;DHT22;49;48.530;9.200;2023-12-04T13:55:27;7.80;1.00
108;DHT22;49;48.530;9.200;2023-12-04T13:58:20;7.70;1.00
108;DHT22;49;48.530;9.200;2023-12-04T14:01:01;7.50;1.00
108;DHT22;49;48.530;9.200;2023-12-04T14:03:38;7.90;1.00
108;DHT22;49;48.530;9.200;2023-12-04T14:06:05;8.00;1.00
108;DHT22;49;48.530;9.200;2023-12-04T14:08:32;8.30;1.00
108;DHT22;49;48.530;9.200;2023-12-04T14:11:01;7.70;1.00
108;DHT22;49;48.530;9.200;2023-12-04T14:13:28;7.90;1.00
108;DHT22;49;48.530;9.200;2023-12-04T14:15:55;7.70;1.00
108;DHT22;49;48.530;9.200;2023-12-04T14:18:22;8.00;1.00
108;DHT22;49;48.530;9.200;2023-12-04T14:20:52;7.60;1.00
108;DHT22;49;48.530;9.200;2023-12-04T14:23:18;7.20;1.00
108;DHT22;49;48.530;9.200;2023-12-04T14:25:47;7.20;1.00
108;DHT22;49;48.530;9.200;2023-12-04T14:28:15;7.80;1.00
108;DHT22;49;48.530;9.200;2023-12-04T14:30:42;7.90;1.00
108;DHT22;49;48.530;9.200;2023-12-04T14:33:10;8.30;1.00
108;DHT22;49;48.530;9.200;2023-12-04T14:35:39;8.60;1.00
108;DHT22;49;48.530;9.200;2023-12-04T14:38:06;8.80;1.00
108;DHT22;49;48.530;9.200;2023-12-04T14:40:33;8.70;1.00
108;DHT22;49;48.530;9.200;2023-12-04T14:43:00;8.10;1.00
108;DHT22;49;48.530;9.200;2023-12-04T14:45:28;8.40;1.00
108;DHT22;49;48.530;9.200;2023-12-04T14:47:55;8.70;1.00
108;DHT22;49;48.530;9.200;2023-12-04T14:50:23;8.80;1.00
108;DHT22;49;48.530;9.200;2023-12-04T14:52:50;8.60;1.00
108;DHT22;49;48.530;9.200;2023-12-04T14:55:20;8.50;1.00
108;DHT22;49;48.530;9.200;2023-12-04T14:58:04;8.60;1.00
108;DHT22;49;48.530;9.200;2023-12-04T15:00:46;8.60;1.00
108;DHT22;49;48.530;9.200;2023-12-04T15:03:39;7.70;1.00
108;DHT22;49;48.530;9.200;2023-12-04T15:06:46;7.90;1.00
108;DHT22;49;48.530;9.200;2023-12-04T15:12:18;7.70;1.00
108;DHT22;49;48.530;9.200;2023-12-04T15:27:44;8.20;1.00
108;DHT22;49;48.530;9.200;2023-12-04T15:35:19;8.30;1.00
108;DHT22;49;48.530;9.200;2023-12-04T15:37:46;8.50;1.00
108;DHT22;49;48.530;9.200;2023-12-04T15:40:12;8.20;1.00
108;DHT22;49;48.530;9.200;2023-12-04T15:42:39;8.50;1.00
108;DHT22;49;48.530;9.200;2023-12-04T15:45:07;8.90;1.00
108;DHT22;49;48.530;9.200;2023-12-04T15:47:34;8.80;1.00
108;DHT22;49;48.530;9.200;2023-12-04T15:52:38;7.90;1.00
108;DHT22;49;48.530;9.200;2023-12-04T15:55:11;7.80;1.00
108;DHT22;49;48.530;9.200;2023-12-04T16:00:15;8.20;1.00
108;DHT22;49;48.530;9.200;2023-12-04T16:05:18;8.70;1.00
108;DHT22;49;48.530;9.200;2023-12-04T16:10:16;9.10;1.00
108;DHT22;49;48.530;9.200;2023-12-04T16:12:44;8.80;1.00
108;DHT22;49;48.530;9.200;2023-12-04T16:17:47;8.00;1.00
108;DHT22;49;48.530;9.200;2023-12-04T16:20:14;8.00;1.00
108;DHT22;49;48.530;9.200;2023-12-04T16:22:43;8.30;1.00
108;DHT22;49;48.530;9.200;2023-12-04T16:30:16;8.20;1.00
108;DHT22;49;48.530;9.200;2023-12-04T16:37:50;7.90;1.00
108;DHT22;49;48.530;9.200;2023-12-04T16:40:18;7.70;1.00
108;DHT22;49;48.530;9.200;2023-12-04T16:42:45;7.50;1.00
108;DHT22;49;48.530;9.200;2023-12-04T16:52:54;7.80;1.00
108;DHT22;49;48.530;9.200;2023-12-04T16:55:22;8.30;1.00
108;DHT22;49;48.530;9.200;2023-12-04T16:57:49;8.10;1.00
108;DHT22;49;48.530;9.200;2023-12-04T17:00:16;8.10;1.00
108;DHT22;49;48.530;9.200;2023-12-04T17:02:43;8.50;1.00
108;DHT22;49;48.530;9.200;2023-12-04T17:05:10;8.60;1.00
108;DHT22;49;48.530;9.200;2023-12-04T17:07:40;8.40;1.00
108;DHT22;49;48.530;9.200;2023-12-04T17:10:12;8.70;1.00
108;DHT22;49;48.530;9.200;2023-12-04T17:12:45;8.10;1.00
108;DHT22;49;48.530;9.200;2023-12-04T17:17:48;7.90;1.00
108;DHT22;49;48.530;9.200;2023-12-04T17:35:36;8.90;1.00
108;DHT22;49;48.530;9.200;2023-12-04T17:38:03;9.00;1.00
108;DHT22;49;48.530;9.200;2023-12-04T17:40:30;9.00;1.00
108;DHT22;49;48.530;9.200;2023-12-04T17:45:25;9.10;1.00
108;DHT22;49;48.530;9.200;2023-12-04T17:47:58;9.20;1.00
108;DHT22;49;48.530;9.200;2023-12-04T17:58:01;9.50;1.00
108;DHT22;49;48.530;9.200;2023-12-04T18:00:28;9.60;1.00
108;DHT22;49;48.530;9.200;2023-12-04T18:02:55;9.80;1.00
108;DHT22;49;48.530;9.200;2023-12-04T18:05:21;9.70;1.00
108;DHT22;49;48.530;9.200;2023-12-04T18:07:48;9.90;1.00
108;DHT22;49;48.530;9.200;2023-12-04T18:10:15;10.00;1.00
108;DHT22;49;48.530;9.200;2023-12-04T18:12:42;9.90;1.00
108;DHT22;49;48.530;9.200;2023-12-04T18:15:11;9.80;1.00
108;DHT22;49;48.530;9.200;2023-12-04T18:17:38;9.90;1.00
108;DHT22;49;48.530;9.200;2023-12-04T18:20:08;9.60;1.00
108;DHT22;49;48.530;9.200;2023-12-04T18:22:35;9.00;1.00
108;DHT22;49;48.530;9.200;2023-12-04T18:25:03;8.90;1.00
108;DHT22;49;48.530;9.200;2023-12-04T18:27:30;8.50;1.00
108;DHT22;49;48.530;9.200;2023-12-04T18:29:58;8.30;1.00
108;DHT22;49;48.530;9.200;2023-12-04T18:32:27;7.80;1.00
108;DHT22;49;48.530;9.200;2023-12-04T18:34:54;7.90;1.00
108;DHT22;49;48.530;9.200;2023-12-04T18:37:32;7.70;1.00
108;DHT22;49;48.530;9.200;2023-12-04T18:40:00;7.30;1.00
108;DHT22;49;48.530;9.200;2023-12-04T18:42:28;7.00;1.00
108;DHT22;49;48.530;9.200;2023-12-04T18:44:57;6.80;1.00
108;DHT22;49;48.530;9.200;2023-12-04T18:47:27;6.60;1.00
108;DHT22;49;48.530;9.200;2023-12-04T18:49:57;6.70;1.00
108;DHT22;49;48.530;9.200;2023-12-04T18:52:25;6.90;1.00
108;DHT22;49;48.530;9.200;2023-12-04T19:05:13;7.60;1.00
108;DHT22;49;48.530;9.200;2023-12-04T19:07:40;7.70;1.00
108;DHT22;49;48.530;9.200;2023-12-04T19:10:08;7.70;1.00
108;DHT22;49;48.530;9.200;2023-12-04T19:12:35;7.80;1.00